sensor_id;sensor_type;location;lat;lon;timestamp;pressure;altitude;pressure_sealevel;temperature;humidity
8366;BME280;4220;42.502;24.188;2023-10-08T00:01:42;95631.25;;;11.59;70.43
8366;BME280;4220;42.502;24.188;2023-10-08T00:04:09;95631.44;;;11.64;69.96
8366;BME280;4220;42.502;24.188;2023-10-08T00:06:37;95641.00;;;11.65;70.53
8366;BME280;4220;42.502;24.188;2023-10-08T00:09:04;95586.16;;;11.14;71.94
8366;BME280;4220;42.502;24.188;2023-10-08T00:11:38;95631.09;;;11.54;71.63
8366;BME280;4220;42.502;24.188;2023-10-08T00:14:06;95623.78;;;11.43;71.98
8366;BME280;4220;42.502;24.188;2023-10-08T00:16:35;95613.50;;;11.53;71.14
8366;BME280;4220;42.502;24.188;2023-10-08T00:19:05;95614.50;;;11.58;71.58
8366;BME280;4220;42.502;24.188;2023-10-08T00:21:35;95609.94;;;11.72;70.73
8366;BME280;4220;42.502;24.188;2023-10-08T00:24:04;95609.34;;;11.70;70.72
8366;BME280;4220;42.502;24.188;2023-10-08T00:26:33;95601.09;;;11.78;70.47
8366;BME280;4220;42.502;24.188;2023-10-08T00:29:03;95597.31;;;11.92;69.79
8366;BME280;4220;42.502;24.188;2023-10-08T00:31:43;95591.34;;;11.65;70.69
8366;BME280;4220;42.502;24.188;2023-10-08T00:34:11;95594.38;;;11.44;72.05
8366;BME280;4220;42.502;24.188;2023-10-08T00:36:40;95591.66;;;11.13;73.34
8366;BME280;4220;42.502;24.188;2023-10-08T00:39:08;95582.63;;;11.27;72.78
8366;BME280;4220;42.502;24.188;2023-10-08T00:41:40;95586.41;;;11.44;72.08
8366;BME280;4220;42.502;24.188;2023-10-08T00:44:10;95580.19;;;11.57;71.71
8366;BME280;4220;42.502;24.188;2023-10-08T00:46:41;95576.59;;;11.76;70.14
8366;BME280;4220;42.502;24.188;2023-10-08T00:49:13;95576.22;;;11.97;69.09
8366;BME280;4220;42.502;24.188;2023-10-08T00:51:54;95560.56;;;12.07;67.79
8366;BME280;4220;42.502;24.188;2023-10-08T00:54:43;95565.94;;;12.43;67.10
8366;BME280;4220;42.502;24.188;2023-10-08T00:57:22;95570.09;;;12.58;65.65
8366;BME280;4220;42.502;24.188;2023-10-08T00:59:51;95574.56;;;12.75;63.44
8366;BME280;4220;42.502;24.188;2023-10-08T01:02:19;95552.94;;;12.72;64.63
8366;BME280;4220;42.502;24.188;2023-10-08T01:04:49;95559.72;;;12.86;64.23
8366;BME280;4220;42.502;24.188;2023-10-08T01:07:17;95558.69;;;12.87;64.28
8366;BME280;4220;42.502;24.188;2023-10-08T01:09:44;95569.19;;;12.82;63.84
8366;BME280;4220;42.502;24.188;2023-10-08T01:12:17;95561.31;;;13.05;62.58
8366;BME280;4220;42.502;24.188;2023-10-08T01:14:50;95571.06;;;13.29;61.32
8366;BME280;4220;42.502;24.188;2023-10-08T01:17:20;95562.38;;;13.87;60.41
8366;BME280;4220;42.502;24.188;2023-10-08T01:19:52;95558.97;;;14.32;58.35
8366;BME280;4220;42.502;24.188;2023-10-08T01:22:26;95568.09;;;14.60;58.79
8366;BME280;4220;42.502;24.188;2023-10-08T01:24:55;95554.22;;;14.97;58.01
8366;BME280;4220;42.502;24.188;2023-10-08T01:27:23;95512.19;;;14.93;56.77
8366;BME280;4220;42.502;24.188;2023-10-08T01:29:51;95559.84;;;15.41;56.08
8366;BME280;4220;42.502;24.188;2023-10-08T01:32:18;95548.88;;;15.54;55.20
8366;BME280;4220;42.502;24.188;2023-10-08T01:34:47;95553.13;;;15.66;54.63
8366;BME280;4220;42.502;24.188;2023-10-08T01:37:14;95546.16;;;15.65;54.48
8366;BME280;4220;42.502;24.188;2023-10-08T01:39:44;95544.38;;;15.71;53.99
8366;BME280;4220;42.502;24.188;2023-10-08T01:42:11;95537.00;;;15.78;53.56
8366;BME280;4220;42.502;24.188;2023-10-08T01:44:44;95526.06;;;15.80;53.47
8366;BME280;4220;42.502;24.188;2023-10-08T01:47:12;95532.81;;;15.82;53.34
8366;BME280;4220;42.502;24.188;2023-10-08T01:49:41;95533.75;;;15.93;53.24
8366;BME280;4220;42.502;24.188;2023-10-08T01:52:09;95486.19;;;15.61;53.42
8366;BME280;4220;42.502;24.188;2023-10-08T01:54:39;95519.44;;;15.82;53.55
8366;BME280;4220;42.502;24.188;2023-10-08T01:57:07;95526.06;;;15.96;53.37
8366;BME280;4220;42.502;24.188;2023-10-08T01:59:35;95538.44;;;16.02;53.18
8366;BME280;4220;42.502;24.188;2023-10-08T02:02:04;95517.13;;;16.07;52.33
8366;BME280;4220;42.502;24.188;2023-10-08T02:04:32;95526.78;;;16.08;52.37
8366;BME280;4220;42.502;24.188;2023-10-08T02:07:01;95499.63;;;16.00;52.64
8366;BME280;4220;42.502;24.188;2023-10-08T02:09:29;95519.25;;;16.05;52.12
8366;BME280;4220;42.502;24.188;2023-10-08T02:11:58;95525.16;;;16.07;51.70
8366;BME280;4220;42.502;24.188;2023-10-08T02:14:26;95523.13;;;16.14;51.18
8366;BME280;4220;42.502;24.188;2023-10-08T02:16:57;95487.63;;;16.02;51.01
8366;BME280;4220;42.502;24.188;2023-10-08T02:19:26;95519.03;;;16.07;51.57
8366;BME280;4220;42.502;24.188;2023-10-08T02:21:54;95516.84;;;15.87;51.91
8366;BME280;4220;42.502;24.188;2023-10-08T02:24:21;95508.72;;;15.65;52.51
8366;BME280;4220;42.502;24.188;2023-10-08T02:26:50;95501.41;;;15.61;53.03
8366;BME280;4220;42.502;24.188;2023-10-08T02:29:18;95516.25;;;15.68;52.94
8366;BME280;4220;42.502;24.188;2023-10-08T02:31:46;95489.88;;;15.44;53.70
8366;BME280;4220;42.502;24.188;2023-10-08T02:34:13;95501.84;;;15.25;54.23
8366;BME280;4220;42.502;24.188;2023-10-08T02:36:40;95488.47;;;14.96;54.95
8366;BME280;4220;42.502;24.188;2023-10-08T02:39:08;95493.16;;;14.89;55.67
8366;BME280;4220;42.502;24.188;2023-10-08T02:41:43;95492.75;;;14.69;56.05
8366;BME280;4220;42.502;24.188;2023-10-08T02:44:11;95485.44;;;14.65;56.51
8366;BME280;4220;42.502;24.188;2023-10-08T02:46:39;95493.81;;;14.68;56.33
8366;BME280;4220;42.502;24.188;2023-10-08T02:49:09;95463.47;;;14.46;56.56
8366;BME280;4220;42.502;24.188;2023-10-08T02:51:38;95493.47;;;14.65;56.66
8366;BME280;4220;42.502;24.188;2023-10-08T02:54:07;95480.56;;;14.73;56.49
8366;BME280;4220;42.502;24.188;2023-10-08T02:56:42;95474.66;;;14.71;56.38
8366;BME280;4220;42.502;24.188;2023-10-08T02:59:10;95486.00;;;14.78;56.26
8366;BME280;4220;42.502;24.188;2023-10-08T03:01:38;95490.06;;;14.81;56.27
8366;BME280;4220;42.502;24.188;2023-10-08T03:04:06;95491.44;;;14.83;56.36
8366;BME280;4220;42.502;24.188;2023-10-08T03:06:41;95484.47;;;14.82;56.49
8366;BME280;4220;42.502;24.188;2023-10-08T03:09:08;95497.81;;;14.82;56.82
8366;BME280;4220;42.502;24.188;2023-10-08T03:11:39;95491.25;;;15.01;56.29
8366;BME280;4220;42.502;24.188;2023-10-08T03:14:12;95491.97;;;14.97;56.47
8366;BME280;4220;42.502;24.188;2023-10-08T03:16:47;95491.97;;;14.97;56.55
8366;BME280;4220;42.502;24.188;2023-10-08T03:19:14;95489.28;;;14.97;56.88
8366;BME280;4220;42.502;24.188;2023-10-08T03:21:46;95496.09;;;15.04;56.21
8366;BME280;4220;42.502;24.188;2023-10-08T03:24:20;95485.78;;;15.08;56.12
8366;BME280;4220;42.502;24.188;2023-10-08T03:27:04;95489.16;;;15.03;56.52
8366;BME280;4220;42.502;24.188;2023-10-08T03:29:38;95477.31;;;14.99;56.50
8366;BME280;4220;42.502;24.188;2023-10-08T03:32:08;95483.13;;;14.96;56.67
8366;BME280;4220;42.502;24.188;2023-10-08T03:34:39;95507.66;;;14.93;57.13
8366;BME280;4220;42.502;24.188;2023-10-08T03:37:10;95474.41;;;14.73;57.41
8366;BME280;4220;42.502;24.188;2023-10-08T03:39:45;95478.91;;;14.84;57.75
8366;BME280;4220;42.502;24.188;2023-10-08T03:42:26;95482.63;;;14.83;57.80
8366;BME280;4220;42.502;24.188;2023-10-08T03:44:59;95473.94;;;14.76;58.14
8366;BME280;4220;42.502;24.188;2023-10-08T03:47:36;95493.91;;;14.73;58.07
8366;BME280;4220;42.502;24.188;2023-10-08T03:50:05;95477.44;;;14.76;58.16
8366;BME280;4220;42.502;24.188;2023-10-08T03:52:34;95477.31;;;14.71;58.41
8366;BME280;4220;42.502;24.188;2023-10-08T03:55:04;95489.72;;;14.77;57.92
8366;BME280;4220;42.502;24.188;2023-10-08T03:57:38;95487.84;;;14.78;58.06
8366;BME280;4220;42.502;24.188;2023-10-08T04:00:09;95484.63;;;14.76;58.37
8366;BME280;4220;42.502;24.188;2023-10-08T04:02:39;95482.75;;;14.76;58.13
8366;BME280;4220;42.502;24.188;2023-10-08T04:05:07;95476.59;;;14.76;58.63
8366;BME280;4220;42.502;24.188;2023-10-08T04:07:46;95484.16;;;14.79;58.46
8366;BME280;4220;42.502;24.188;2023-10-08T04:10:27;95486.13;;;14.72;58.64
8366;BME280;4220;42.502;24.188;2023-10-08T04:13:33;95495.53;;;14.74;58.65
8366;BME280;4220;42.502;24.188;2023-10-08T04:16:04;95499.56;;;14.77;58.43
8366;BME280;4220;42.502;24.188;2023-10-08T04:18:31;95493.06;;;14.84;58.21
8366;BME280;4220;42.502;24.188;2023-10-08T04:21:06;95497.31;;;14.97;57.81
8366;BME280;4220;42.502;24.188;2023-10-08T04:23:40;95459.09;;;14.68;58.04
8366;BME280;4220;42.502;24.188;2023-10-08T04:26:10;95500.34;;;14.89;58.43
8366;BME280;4220;42.502;24.188;2023-10-08T04:28:38;95495.16;;;14.82;58.41
8366;BME280;4220;42.502;24.188;2023-10-08T04:31:06;95506.19;;;14.74;58.72
8366;BME280;4220;42.502;24.188;2023-10-08T04:33:44;95499.25;;;14.73;58.94
8366;BME280;4220;42.502;24.188;2023-10-08T04:36:12;95505.25;;;14.80;58.79
8366;BME280;4220;42.502;24.188;2023-10-08T04:38:45;95475.03;;;14.63;58.65
8366;BME280;4220;42.502;24.188;2023-10-08T04:41:14;95508.50;;;14.82;58.73
8366;BME280;4220;42.502;24.188;2023-10-08T04:43:45;95476.50;;;14.71;58.30
8366;BME280;4220;42.502;24.188;2023-10-08T04:46:15;95514.63;;;14.94;58.66
8366;BME280;4220;42.502;24.188;2023-10-08T04:49:00;95513.56;;;14.95;58.04
8366;BME280;4220;42.502;24.188;2023-10-08T04:51:30;95518.44;;;14.98;58.19
8366;BME280;4220;42.502;24.188;2023-10-08T04:54:03;95513.69;;;15.00;58.02
8366;BME280;4220;42.502;24.188;2023-10-08T04:56:30;95506.22;;;15.02;58.01
8366;BME280;4220;42.502;24.188;2023-10-08T04:58:58;95515.53;;;15.00;58.15
8366;BME280;4220;42.502;24.188;2023-10-08T05:01:25;95497.25;;;15.08;57.61
8366;BME280;4220;42.502;24.188;2023-10-08T05:04:03;95493.06;;;15.13;57.57
8366;BME280;4220;42.502;24.188;2023-10-08T05:06:49;95485.78;;;15.08;57.46
8366;BME280;4220;42.502;24.188;2023-10-08T05:09:28;95493.06;;;15.13;57.69
8366;BME280;4220;42.502;24.188;2023-10-08T05:12:08;95506.03;;;15.21;57.42
8366;BME280;4220;42.502;24.188;2023-10-08T05:14:54;95504.13;;;15.33;57.26
8366;BME280;4220;42.502;24.188;2023-10-08T05:17:47;95500.72;;;15.37;56.78
8366;BME280;4220;42.502;24.188;2023-10-08T05:20:23;95478.06;;;15.40;56.26
8366;BME280;4220;42.502;24.188;2023-10-08T05:23:10;95504.19;;;15.66;55.12
8366;BME280;4220;42.502;24.188;2023-10-08T05:26:20;95494.47;;;15.77;54.69
8366;BME280;4220;42.502;24.188;2023-10-08T05:28:56;95509.53;;;15.83;54.78
8366;BME280;4220;42.502;24.188;2023-10-08T05:31:48;95507.19;;;15.86;54.66
8366;BME280;4220;42.502;24.188;2023-10-08T05:34:25;95496.75;;;15.85;54.66
8366;BME280;4220;42.502;24.188;2023-10-08T05:37:08;95494.13;;;15.90;55.19
8366;BME280;4220;42.502;24.188;2023-10-08T05:39:56;95505.47;;;15.97;54.26
8366;BME280;4220;42.502;24.188;2023-10-08T05:42:38;95496.16;;;15.99;53.98
8366;BME280;4220;42.502;24.188;2023-10-08T05:45:12;95485.84;;;16.08;53.97
8366;BME280;4220;42.502;24.188;2023-10-08T05:47:54;95493.53;;;16.21;53.79
8366;BME280;4220;42.502;24.188;2023-10-08T05:50:33;95517.69;;;16.26;53.18
8366;BME280;4220;42.502;24.188;2023-10-08T05:53:08;95487.63;;;16.19;53.11
8366;BME280;4220;42.502;24.188;2023-10-08T05:55:45;95513.72;;;16.28;53.42
8366;BME280;4220;42.502;24.188;2023-10-08T05:58:27;95509.41;;;16.27;53.13
8366;BME280;4220;42.502;24.188;2023-10-08T06:01:11;95494.91;;;16.23;52.85
8366;BME280;4220;42.502;24.188;2023-10-08T06:03:51;95533.16;;;16.41;52.38
8366;BME280;4220;42.502;24.188;2023-10-08T06:06:25;95521.44;;;16.47;52.28
8366;BME280;4220;42.502;24.188;2023-10-08T06:09:06;95507.00;;;16.48;52.07
8366;BME280;4220;42.502;24.188;2023-10-08T06:11:48;95527.94;;;16.51;52.17
8366;BME280;4220;42.502;24.188;2023-10-08T06:14:37;95514.31;;;16.52;52.26
8366;BME280;4220;42.502;24.188;2023-10-08T06:17:23;95503.94;;;16.56;51.86
8366;BME280;4220;42.502;24.188;2023-10-08T06:20:00;95517.69;;;16.64;51.83
8366;BME280;4220;42.502;24.188;2023-10-08T06:22:35;95513.78;;;16.72;51.88
8366;BME280;4220;42.502;24.188;2023-10-08T06:25:02;95530.66;;;16.72;51.78
8366;BME280;4220;42.502;24.188;2023-10-08T06:27:43;95499.91;;;16.75;52.06
8366;BME280;4220;42.502;24.188;2023-10-08T06:30:13;95517.75;;;16.91;51.89
8366;BME280;4220;42.502;24.188;2023-10-08T06:32:43;95516.78;;;16.97;51.90
8366;BME280;4220;42.502;24.188;2023-10-08T06:35:11;95518.44;;;17.03;51.73
8366;BME280;4220;42.502;24.188;2023-10-08T06:37:44;95525.53;;;17.14;51.68
8366;BME280;4220;42.502;24.188;2023-10-08T06:40:11;95509.50;;;17.19;51.15
8366;BME280;4220;42.502;24.188;2023-10-08T06:43:00;95515.47;;;17.26;51.13
8366;BME280;4220;42.502;24.188;2023-10-08T06:45:40;95520.13;;;17.36;50.99
8366;BME280;4220;42.502;24.188;2023-10-08T06:48:08;95526.91;;;17.43;50.52
8366;BME280;4220;42.502;24.188;2023-10-08T06:50:43;95528.34;;;17.51;50.51
8366;BME280;4220;42.502;24.188;2023-10-08T06:53:10;95530.78;;;17.52;50.08
8366;BME280;4220;42.502;24.188;2023-10-08T06:55:39;95515.81;;;17.56;49.89
8366;BME280;4220;42.502;24.188;2023-10-08T06:58:07;95513.19;;;17.61;49.64
8366;BME280;4220;42.502;24.188;2023-10-08T07:00:35;95506.75;;;17.62;49.66
8366;BME280;4220;42.502;24.188;2023-10-08T07:03:07;95504.75;;;17.80;49.38
8366;BME280;4220;42.502;24.188;2023-10-08T07:05:36;95515.59;;;17.95;48.88
8366;BME280;4220;42.502;24.188;2023-10-08T07:08:09;95515.72;;;18.10;48.44
8366;BME280;4220;42.502;24.188;2023-10-08T07:10:39;95517.16;;;18.22;48.33
8366;BME280;4220;42.502;24.188;2023-10-08T07:13:07;95512.59;;;18.28;48.29
8366;BME280;4220;42.502;24.188;2023-10-08T07:15:35;95509.38;;;18.26;47.16
8366;BME280;4220;42.502;24.188;2023-10-08T07:18:05;95526.06;;;18.33;47.82
8366;BME280;4220;42.502;24.188;2023-10-08T07:20:40;95511.66;;;18.44;47.73
8366;BME280;4220;42.502;24.188;2023-10-08T07:23:11;95524.91;;;18.56;47.50
8366;BME280;4220;42.502;24.188;2023-10-08T07:25:52;95490.47;;;18.48;47.29
8366;BME280;4220;42.502;24.188;2023-10-08T07:28:23;95518.25;;;18.68;46.13
8366;BME280;4220;42.502;24.188;2023-10-08T07:30:51;95507.50;;;18.68;46.33
8366;BME280;4220;42.502;24.188;2023-10-08T07:33:18;95522.31;;;18.71;46.41
8366;BME280;4220;42.502;24.188;2023-10-08T07:35:47;95519.63;;;18.76;45.77
8366;BME280;4220;42.502;24.188;2023-10-08T07:38:25;95530.41;;;18.81;46.20
8366;BME280;4220;42.502;24.188;2023-10-08T07:40:55;95486.81;;;18.69;45.67
8366;BME280;4220;42.502;24.188;2023-10-08T07:43:22;95514.88;;;18.93;45.89
8366;BME280;4220;42.502;24.188;2023-10-08T07:45:49;95504.97;;;19.04;45.84
8366;BME280;4220;42.502;24.188;2023-10-08T07:48:20;95505.25;;;19.12;45.08
8366;BME280;4220;42.502;24.188;2023-10-08T07:50:49;95495.34;;;19.18;45.12
8366;BME280;4220;42.502;24.188;2023-10-08T07:53:16;95493.72;;;19.22;45.14
8366;BME280;4220;42.502;24.188;2023-10-08T07:55:46;95497.03;;;19.39;45.09
8366;BME280;4220;42.502;24.188;2023-10-08T07:58:15;95480.66;;;19.50;44.62
8366;BME280;4220;42.502;24.188;2023-10-08T08:00:42;95496.53;;;19.72;43.83
8366;BME280;4220;42.502;24.188;2023-10-08T08:03:21;95504.34;;;19.84;42.76
8366;BME280;4220;42.502;24.188;2023-10-08T08:05:49;95497.63;;;19.86;42.70
8366;BME280;4220;42.502;24.188;2023-10-08T08:08:20;95496.00;;;19.95;42.22
8366;BME280;4220;42.502;24.188;2023-10-08T08:10:49;95522.13;;;19.90;42.13
8366;BME280;4220;42.502;24.188;2023-10-08T08:13:24;95518.59;;;19.79;41.93
8366;BME280;4220;42.502;24.188;2023-10-08T08:15:54;95487.94;;;19.80;42.44
8366;BME280;4220;42.502;24.188;2023-10-08T08:18:25;95496.56;;;19.92;41.88
8366;BME280;4220;42.502;24.188;2023-10-08T08:21:00;95484.16;;;20.06;41.58
8366;BME280;4220;42.502;24.188;2023-10-08T08:23:31;95483.06;;;20.12;42.23
8366;BME280;4220;42.502;24.188;2023-10-08T08:25:58;95489.25;;;20.33;41.94
8366;BME280;4220;42.502;24.188;2023-10-08T08:28:38;95480.34;;;20.48;41.35
8366;BME280;4220;42.502;24.188;2023-10-08T08:31:06;95477.66;;;20.43;40.63
8366;BME280;4220;42.502;24.188;2023-10-08T08:33:40;95462.81;;;20.45;41.06
8366;BME280;4220;42.502;24.188;2023-10-08T08:36:20;95469.25;;;20.54;40.86
8366;BME280;4220;42.502;24.188;2023-10-08T08:38:47;95477.56;;;20.73;40.55
8366;BME280;4220;42.502;24.188;2023-10-08T08:41:15;95475.41;;;20.75;39.85
8366;BME280;4220;42.502;24.188;2023-10-08T08:43:47;95470.00;;;20.75;39.77
8366;BME280;4220;42.502;24.188;2023-10-08T08:46:14;95462.16;;;20.83;39.72
8366;BME280;4220;42.502;24.188;2023-10-08T08:48:43;95462.09;;;20.94;39.23
8366;BME280;4220;42.502;24.188;2023-10-08T08:51:11;95449.19;;;20.96;39.04
8366;BME280;4220;42.502;24.188;2023-10-08T08:53:40;95453.22;;;20.93;38.88
8366;BME280;4220;42.502;24.188;2023-10-08T08:56:08;95469.91;;;21.10;39.14
8366;BME280;4220;42.502;24.188;2023-10-08T08:58:36;95460.16;;;21.14;38.71
8366;BME280;4220;42.502;24.188;2023-10-08T09:01:06;95462.25;;;21.27;37.95
8366;BME280;4220;42.502;24.188;2023-10-08T09:03:35;95460.31;;;21.33;37.60
8366;BME280;4220;42.502;24.188;2023-10-08T09:06:02;95450.34;;;21.28;37.71
8366;BME280;4220;42.502;24.188;2023-10-08T09:08:33;95458.94;;;21.35;37.48
8366;BME280;4220;42.502;24.188;2023-10-08T09:11:02;95419.59;;;21.29;37.23
8366;BME280;4220;42.502;24.188;2023-10-08T09:13:31;95446.53;;;21.73;36.91
8366;BME280;4220;42.502;24.188;2023-10-08T09:16:03;95453.34;;;21.66;36.47
8366;BME280;4220;42.502;24.188;2023-10-08T09:18:33;95441.13;;;21.73;36.73
8366;BME280;4220;42.502;24.188;2023-10-08T09:21:14;95444.09;;;21.77;36.42
8366;BME280;4220;42.502;24.188;2023-10-08T09:23:44;95449.44;;;21.82;36.26
8366;BME280;4220;42.502;24.188;2023-10-08T09:26:18;95452.03;;;21.97;36.07
8366;BME280;4220;42.502;24.188;2023-10-08T09:28:45;95459.53;;;22.05;35.84
8366;BME280;4220;42.502;24.188;2023-10-08T09:31:14;95427.44;;;21.98;35.82
8366;BME280;4220;42.502;24.188;2023-10-08T09:33:41;95434.47;;;22.28;35.19
8366;BME280;4220;42.502;24.188;2023-10-08T09:36:09;95430.84;;;22.38;35.09
8366;BME280;4220;42.502;24.188;2023-10-08T09:38:45;95446.69;;;22.44;34.63
8366;BME280;4220;42.502;24.188;2023-10-08T09:41:14;95431.34;;;22.40;35.01
8366;BME280;4220;42.502;24.188;2023-10-08T09:43:42;95434.38;;;22.62;35.09
8366;BME280;4220;42.502;24.188;2023-10-08T09:46:15;95411.16;;;22.56;34.87
8366;BME280;4220;42.502;24.188;2023-10-08T09:48:49;95393.84;;;22.57;34.84
8366;BME280;4220;42.502;24.188;2023-10-08T09:51:17;95409.88;;;22.96;34.83
8366;BME280;4220;42.502;24.188;2023-10-08T09:53:52;95422.53;;;23.00;33.79
8366;BME280;4220;42.502;24.188;2023-10-08T09:56:20;95404.03;;;22.89;33.88
8366;BME280;4220;42.502;24.188;2023-10-08T09:58:49;95402.00;;;22.75;34.24
8366;BME280;4220;42.502;24.188;2023-10-08T10:01:18;95400.00;;;22.86;34.39
8366;BME280;4220;42.502;24.188;2023-10-08T10:03:47;95401.75;;;22.77;34.22
8366;BME280;4220;42.502;24.188;2023-10-08T10:06:15;95406.78;;;22.84;34.45
8366;BME280;4220;42.502;24.188;2023-10-08T10:08:44;95412.88;;;22.94;34.61
8366;BME280;4220;42.502;24.188;2023-10-08T10:11:11;95397.41;;;23.00;34.36
8366;BME280;4220;42.502;24.188;2023-10-08T10:13:40;95403.25;;;23.07;33.85
8366;BME280;4220;42.502;24.188;2023-10-08T10:16:13;95399.28;;;23.18;34.04
8366;BME280;4220;42.502;24.188;2023-10-08T10:18:44;95387.16;;;23.15;33.96
8366;BME280;4220;42.502;24.188;2023-10-08T10:21:34;95381.38;;;23.22;34.05
8366;BME280;4220;42.502;24.188;2023-10-08T10:24:00;95381.59;;;23.25;33.89
8366;BME280;4220;42.502;24.188;2023-10-08T10:26:32;95390.41;;;23.36;33.87
8366;BME280;4220;42.502;24.188;2023-10-08T10:29:22;95391.59;;;23.62;34.07
8366;BME280;4220;42.502;24.188;2023-10-08T10:31:54;95383.22;;;23.77;33.29
8366;BME280;4220;42.502;24.188;2023-10-08T10:34:24;95373.78;;;23.75;33.34
8366;BME280;4220;42.502;24.188;2023-10-08T10:36:53;95387.25;;;23.80;33.29
8366;BME280;4220;42.502;24.188;2023-10-08T10:39:25;95369.00;;;23.85;33.27
8366;BME280;4220;42.502;24.188;2023-10-08T10:41:58;95372.03;;;23.97;33.24
8366;BME280;4220;42.502;24.188;2023-10-08T10:44:29;95364.38;;;23.86;33.16
8366;BME280;4220;42.502;24.188;2023-10-08T10:46:58;95377.66;;;23.69;33.17
8366;BME280;4220;42.502;24.188;2023-10-08T10:49:43;95365.84;;;23.65;33.69
8366;BME280;4220;42.502;24.188;2023-10-08T10:52:20;95383.13;;;23.82;33.35
8366;BME280;4220;42.502;24.188;2023-10-08T10:54:59;95342.09;;;23.89;33.33
8366;BME280;4220;42.502;24.188;2023-10-08T10:57:44;95356.41;;;24.08;33.04
8366;BME280;4220;42.502;24.188;2023-10-08T11:00:19;95342.09;;;24.08;33.05
8366;BME280;4220;42.502;24.188;2023-10-08T11:03:14;95351.94;;;24.17;32.75
8366;BME280;4220;42.502;24.188;2023-10-08T11:05:51;95290.91;;;23.74;32.84
8366;BME280;4220;42.502;24.188;2023-10-08T11:08:20;95322.50;;;24.11;32.72
8366;BME280;4220;42.502;24.188;2023-10-08T11:10:49;95331.25;;;24.35;32.54
8366;BME280;4220;42.502;24.188;2023-10-08T11:13:18;95337.28;;;24.32;31.96
8366;BME280;4220;42.502;24.188;2023-10-08T11:15:46;95339.97;;;24.59;31.87
8366;BME280;4220;42.502;24.188;2023-10-08T11:18:19;95314.22;;;24.70;31.33
8366;BME280;4220;42.502;24.188;2023-10-08T11:20:48;95316.25;;;24.78;30.79
8366;BME280;4220;42.502;24.188;2023-10-08T11:23:31;95315.81;;;24.98;30.70
8366;BME280;4220;42.502;24.188;2023-10-08T11:26:01;95308.53;;;25.07;30.84
8366;BME280;4220;42.502;24.188;2023-10-08T11:28:29;95254.56;;;24.84;30.27
8366;BME280;4220;42.502;24.188;2023-10-08T11:30:59;95319.09;;;25.31;29.98
8366;BME280;4220;42.502;24.188;2023-10-08T11:33:35;95348.06;;;25.36;29.70
8366;BME280;4220;42.502;24.188;2023-10-08T11:36:03;95313.13;;;25.20;29.95
8366;BME280;4220;42.502;24.188;2023-10-08T11:38:38;95293.47;;;25.23;29.74
8366;BME280;4220;42.502;24.188;2023-10-08T11:41:12;95260.38;;;25.35;29.31
8366;BME280;4220;42.502;24.188;2023-10-08T11:43:56;95291.53;;;25.38;29.34
8366;BME280;4220;42.502;24.188;2023-10-08T11:46:25;95263.91;;;25.13;29.47
8366;BME280;4220;42.502;24.188;2023-10-08T11:48:54;95208.94;;;24.86;29.28
8366;BME280;4220;42.502;24.188;2023-10-08T11:51:29;95315.63;;;25.17;29.62
8366;BME280;4220;42.502;24.188;2023-10-08T11:53:58;95292.47;;;25.33;29.74
8366;BME280;4220;42.502;24.188;2023-10-08T11:56:25;95304.94;;;25.56;29.59
8366;BME280;4220;42.502;24.188;2023-10-08T11:58:53;95277.94;;;25.38;29.51
8366;BME280;4220;42.502;24.188;2023-10-08T12:01:22;95286.25;;;25.55;29.45
8366;BME280;4220;42.502;24.188;2023-10-08T12:03:49;95289.66;;;25.24;29.85
8366;BME280;4220;42.502;24.188;2023-10-08T12:06:18;95282.63;;;25.23;30.23
8366;BME280;4220;42.502;24.188;2023-10-08T12:08:47;95268.28;;;25.23;29.98
8366;BME280;4220;42.502;24.188;2023-10-08T12:11:19;95272.03;;;25.36;30.35
8366;BME280;4220;42.502;24.188;2023-10-08T12:13:48;95284.13;;;25.52;30.04
8366;BME280;4220;42.502;24.188;2023-10-08T12:16:16;95257.69;;;25.44;30.04
8366;BME280;4220;42.502;24.188;2023-10-08T12:18:48;95279.16;;;25.76;30.42
8366;BME280;4220;42.502;24.188;2023-10-08T12:21:20;95263.59;;;25.68;30.11
8366;BME280;4220;42.502;24.188;2023-10-08T12:23:47;95257.28;;;25.81;29.99
8366;BME280;4220;42.502;24.188;2023-10-08T12:26:15;95260.34;;;25.88;29.86
8366;BME280;4220;42.502;24.188;2023-10-08T12:28:45;95265.84;;;26.05;29.85
8366;BME280;4220;42.502;24.188;2023-10-08T12:31:13;95270.00;;;26.03;29.75
8366;BME280;4220;42.502;24.188;2023-10-08T12:33:41;95256.59;;;26.06;29.98
8366;BME280;4220;42.502;24.188;2023-10-08T12:36:10;95211.09;;;25.81;30.32
8366;BME280;4220;42.502;24.188;2023-10-08T12:38:39;95253.88;;;26.06;30.31
8366;BME280;4220;42.502;24.188;2023-10-08T12:41:08;95248.84;;;26.30;30.18
8366;BME280;4220;42.502;24.188;2023-10-08T12:43:39;95264.69;;;26.37;30.34
8366;BME280;4220;42.502;24.188;2023-10-08T12:46:08;95266.41;;;26.16;30.39
8366;BME280;4220;42.502;24.188;2023-10-08T12:48:41;95263.00;;;26.10;30.40
8366;BME280;4220;42.502;24.188;2023-10-08T12:51:09;95257.28;;;26.12;30.34
8366;BME280;4220;42.502;24.188;2023-10-08T12:53:38;95264.13;;;26.09;30.51
8366;BME280;4220;42.502;24.188;2023-10-08T12:56:07;95256.75;;;26.10;30.61
8366;BME280;4220;42.502;24.188;2023-10-08T12:58:42;95236.84;;;26.14;30.52
8366;BME280;4220;42.502;24.188;2023-10-08T13:01:10;95245.38;;;26.38;30.29
8366;BME280;4220;42.502;24.188;2023-10-08T13:03:39;95255.00;;;26.61;30.17
8366;BME280;4220;42.502;24.188;2023-10-08T13:06:08;95248.66;;;26.92;30.04
8366;BME280;4220;42.502;24.188;2023-10-08T13:08:38;95257.78;;;26.96;29.73
8366;BME280;4220;42.502;24.188;2023-10-08T13:11:05;95252.00;;;26.89;29.82
8366;BME280;4220;42.502;24.188;2023-10-08T13:13:32;95244.13;;;26.70;29.88
8366;BME280;4220;42.502;24.188;2023-10-08T13:15:59;95241.94;;;26.24;30.25
8366;BME280;4220;42.502;24.188;2023-10-08T13:18:33;95258.03;;;26.04;30.61
8366;BME280;4220;42.502;24.188;2023-10-08T13:21:03;95282.50;;;25.73;31.02
8366;BME280;4220;42.502;24.188;2023-10-08T13:23:30;95246.41;;;25.81;30.83
8366;BME280;4220;42.502;24.188;2023-10-08T13:26:02;95244.19;;;26.14;30.76
8366;BME280;4220;42.502;24.188;2023-10-08T13:28:32;95294.13;;;26.35;30.60
8366;BME280;4220;42.502;24.188;2023-10-08T13:31:00;95269.66;;;25.95;30.67
8366;BME280;4220;42.502;24.188;2023-10-08T13:33:35;95234.19;;;25.39;31.52
8366;BME280;4220;42.502;24.188;2023-10-08T13:36:04;95236.72;;;25.58;31.58